sensor_id;sensor_type;location;lat;lon;timestamp;pressure;altitude;pressure_sealevel;temperature;humidity
77517;BME280;68414;53.946;27.634;2023-07-31T00:00:31;98274.234375;;;17.730000;78.556641
77517;BME280;68414;53.946;27.634;2023-07-31T00:01:31;98268.976562;;;17.790001;78.623047
77517;BME280;68414;53.946;27.634;2023-07-31T00:02:31;98277.281250;;;17.820000;78.594727
77517;BME280;68414;53.946;27.634;2023-07-31T00:03:31;98277.265625;;;17.860001;77.963867
77517;BME280;68414;53.946;27.634;2023-07-31T00:04:31;98272.187500;;;17.770000;78.344727
77517;BME280;68414;53.946;27.634;2023-07-31T00:05:31;98275.421875;;;17.719999;78.841797
77517;BME280;68414;53.946;27.634;2023-07-31T00:06:31;98283.281250;;;17.809999;78.483398
77517;BME280;68414;53.946;27.634;2023-07-31T00:07:31;98273.359375;;;17.799999;78.712891
77517;BME280;68414;53.946;27.634;2023-07-31T00:08:31;98276.406250;;;17.889999;78.267578
77517;BME280;68414;53.946;27.634;2023-07-31T00:09:31;98274.390625;;;17.930000;78.053711
77517;BME280;68414;53.946;27.634;2023-07-31T00:10:31;98277.921875;;;17.969999;77.698242
77517;BME280;68414;53.946;27.634;2023-07-31T00:11:31;98272.750000;;;17.950001;77.694336
77517;BME280;68414;53.946;27.634;2023-07-31T00:12:31;98268.335938;;;17.980000;77.270508
77517;BME280;68414;53.946;27.634;2023-07-31T00:13:31;98276.671875;;;18.010000;77.002930
77517;BME280;68414;53.946;27.634;2023-07-31T00:14:31;98275.937500;;;17.969999;77.171875
77517;BME280;68414;53.946;27.634;2023-07-31T00:15:31;98276.390625;;;17.920000;77.128906
77517;BME280;68414;53.946;27.634;2023-07-31T00:16:31;98268.609375;;;17.770000;77.433594
77517;BME280;68414;53.946;27.634;2023-07-31T00:17:31;98277.515625;;;17.650000;78.387695
77517;BME280;68414;53.946;27.634;2023-07-31T00:18:31;98272.437500;;;17.559999;78.791992
77517;BME280;68414;53.946;27.634;2023-07-31T00:19:31;98274.375000;;;17.590000;78.532227
77517;BME280;68414;53.946;27.634;2023-07-31T00:20:31;98276.859375;;;17.500000;78.725586
77517;BME280;68414;53.946;27.634;2023-07-31T00:21:31;98278.906250;;;17.420000;79.040039
77517;BME280;68414;53.946;27.634;2023-07-31T00:22:31;98280.898438;;;17.420000;79.204102
77517;BME280;68414;53.946;27.634;2023-07-31T00:23:31;98278.968750;;;17.350000;79.204102
77517;BME280;68414;53.946;27.634;2023-07-31T00:24:31;98277.890625;;;17.260000;79.538086
77517;BME280;68414;53.946;27.634;2023-07-31T00:25:31;98278.703125;;;17.230000;79.708984
77517;BME280;68414;53.946;27.634;2023-07-31T00:26:31;98271.109375;;;17.270000;79.418945
77517;BME280;68414;53.946;27.634;2023-07-31T00:27:31;98279.398438;;;17.340000;79.683594
77517;BME280;68414;53.946;27.634;2023-07-31T00:28:31;98280.195312;;;17.340000;79.827148
77517;BME280;68414;53.946;27.634;2023-07-31T00:29:31;98283.312500;;;17.400000;79.640625
77517;BME280;68414;53.946;27.634;2023-07-31T00:30:31;98275.328125;;;17.420000;79.434570
77517;BME280;68414;53.946;27.634;2023-07-31T00:31:31;98273.273438;;;17.500000;79.536133
77517;BME280;68414;53.946;27.634;2023-07-31T00:32:31;98272.812500;;;17.580000;79.025391
77517;BME280;68414;53.946;27.634;2023-07-31T00:33:31;98280.000000;;;17.559999;78.603516
77517;BME280;68414;53.946;27.634;2023-07-31T00:34:31;98280.375000;;;17.580000;79.145508
77517;BME280;68414;53.946;27.634;2023-07-31T00:35:31;98281.062500;;;17.650000;78.664062
77517;BME280;68414;53.946;27.634;2023-07-31T00:36:31;98280.296875;;;17.650000;79.124023
77517;BME280;68414;53.946;27.634;2023-07-31T00:37:31;98275.546875;;;17.620001;78.778320
77517;BME280;68414;53.946;27.634;2023-07-31T00:38:31;98271.960938;;;17.610001;79.107422
77517;BME280;68414;53.946;27.634;2023-07-31T00:39:31;98274.750000;;;17.610001;79.228516
77517;BME280;68414;53.946;27.634;2023-07-31T00:40:34;98277.835938;;;17.700001;79.046875
77517;BME280;68414;53.946;27.634;2023-07-31T00:41:31;98284.578125;;;17.730000;78.545898
77517;BME280;68414;53.946;27.634;2023-07-31T00:42:31;98277.390625;;;17.750000;78.594727
77517;BME280;68414;53.946;27.634;2023-07-31T00:43:31;98266.320312;;;17.680000;78.273438
77517;BME280;68414;53.946;27.634;2023-07-31T00:44:31;98270.398438;;;17.600000;78.754883
77517;BME280;68414;53.946;27.634;2023-07-31T00:45:31;98268.054688;;;17.549999;79.623047
77517;BME280;68414;53.946;27.634;2023-07-31T00:46:31;98272.765625;;;17.620001;78.800781
77517;BME280;68414;53.946;27.634;2023-07-31T00:47:31;98276.734375;;;17.610001;78.787109
77517;BME280;68414;53.946;27.634;2023-07-31T00:48:31;98273.578125;;;17.590000;78.784180
77517;BME280;68414;53.946;27.634;2023-07-31T00:49:31;98268.304688;;;17.680000;78.416016
77517;BME280;68414;53.946;27.634;2023-07-31T00:50:33;98267.140625;;;17.650000;78.169922
77517;BME280;68414;53.946;27.634;2023-07-31T00:51:31;98264.328125;;;17.690001;78.308594
77517;BME280;68414;53.946;27.634;2023-07-31T00:52:31;98259.921875;;;17.709999;78.212891
77517;BME280;68414;53.946;27.634;2023-07-31T00:53:31;98260.187500;;;17.799999;77.965820
77517;BME280;68414;53.946;27.634;2023-07-31T00:54:31;98266.109375;;;17.860001;77.590820
77517;BME280;68414;53.946;27.634;2023-07-31T00:55:31;98266.031250;;;17.930000;77.262695
77517;BME280;68414;53.946;27.634;2023-07-31T00:56:31;98266.406250;;;17.950001;77.001953
77517;BME280;68414;53.946;27.634;2023-07-31T00:57:31;98261.937500;;;18.010000;76.781250
77517;BME280;68414;53.946;27.634;2023-07-31T00:58:31;98268.679688;;;18.030001;76.598633
77517;BME280;68414;53.946;27.634;2023-07-31T00:59:31;98263.046875;;;18.070000;76.417969
77517;BME280;68414;53.946;27.634;2023-07-31T01:00:31;98264.375000;;;17.950001;76.606445
77517;BME280;68414;53.946;27.634;2023-07-31T01:01:31;98259.820312;;;17.780001;77.511719
77517;BME280;68414;53.946;27.634;2023-07-31T01:02:31;98260.687500;;;17.719999;77.686523
77517;BME280;68414;53.946;27.634;2023-07-31T01:03:31;98263.703125;;;17.540001;78.161133
77517;BME280;68414;53.946;27.634;2023-07-31T01:04:31;98260.921875;;;17.540001;78.578125
77517;BME280;68414;53.946;27.634;2023-07-31T01:07:35;98261.937500;;;17.299999;78.832031
77517;BME280;68414;53.946;27.634;2023-07-31T01:10:33;98268.742188;;;17.250000;79.779297
77517;BME280;68414;53.946;27.634;2023-07-31T01:11:33;98267.835938;;;17.350000;78.961914
77517;BME280;68414;53.946;27.634;2023-07-31T01:12:31;98270.500000;;;17.459999;78.442383
77517;BME280;68414;53.946;27.634;2023-07-31T01:13:31;98272.062500;;;17.540001;78.007812
77517;BME280;68414;53.946;27.634;2023-07-31T01:14:31;98266.390625;;;17.610001;77.790039
77517;BME280;68414;53.946;27.634;2023-07-31T01:15:31;98264.828125;;;17.600000;77.084961
77517;BME280;68414;53.946;27.634;2023-07-31T01:16:31;98269.710938;;;17.450001;78.037109
77517;BME280;68414;53.946;27.634;2023-07-31T01:17:31;98261.078125;;;17.360001;78.546875
77517;BME280;68414;53.946;27.634;2023-07-31T01:18:31;98272.281250;;;17.290001;78.963867
77517;BME280;68414;53.946;27.634;2023-07-31T01:19:31;98272.703125;;;17.280001;78.521484
77517;BME280;68414;53.946;27.634;2023-07-31T01:20:31;98273.140625;;;17.230000;79.050781
77517;BME280;68414;53.946;27.634;2023-07-31T01:26:33;98272.984375;;;17.370001;78.746094
77517;BME280;68414;53.946;27.634;2023-07-31T01:27:34;98266.156250;;;17.450001;78.287109
77517;BME280;68414;53.946;27.634;2023-07-31T01:30:32;98269.312500;;;17.469999;77.774414
77517;BME280;68414;53.946;27.634;2023-07-31T01:31:31;98274.460938;;;17.490000;77.789062
77517;BME280;68414;53.946;27.634;2023-07-31T01:32:31;98272.546875;;;17.420000;77.909180
77517;BME280;68414;53.946;27.634;2023-07-31T01:33:31;98271.484375;;;17.290001;78.117188
77517;BME280;68414;53.946;27.634;2023-07-31T01:34:31;98271.539062;;;17.219999;78.959961
77517;BME280;68414;53.946;27.634;2023-07-31T01:35:31;98268.000000;;;17.180000;79.095703
77517;BME280;68414;53.946;27.634;2023-07-31T01:36:31;98266.812500;;;17.190001;78.647461
77517;BME280;68414;53.946;27.634;2023-07-31T01:37:31;98267.625000;;;17.160000;78.982422
77517;BME280;68414;53.946;27.634;2023-07-31T01:38:31;98269.656250;;;17.120001;79.348633
77517;BME280;68414;53.946;27.634;2023-07-31T01:39:31;98269.703125;;;17.080000;79.331055
77517;BME280;68414;53.946;27.634;2023-07-31T01:40:31;98264.468750;;;17.139999;79.549805
77517;BME280;68414;53.946;27.634;2023-07-31T01:41:31;98267.625000;;;17.160000;79.158203
77517;BME280;68414;53.946;27.634;2023-07-31T01:42:31;98276.781250;;;17.160000;78.764648
77517;BME280;68414;53.946;27.634;2023-07-31T01:43:31;98271.640625;;;17.110001;79.094727
77517;BME280;68414;53.946;27.634;2023-07-31T01:44:31;98273.250000;;;17.090000;79.058594
77517;BME280;68414;53.946;27.634;2023-07-31T01:45:31;98271.320312;;;17.020000;78.958984
77517;BME280;68414;53.946;27.634;2023-07-31T01:46:31;98270.984375;;;16.969999;79.102539
77517;BME280;68414;53.946;27.634;2023-07-31T01:47:31;98276.609375;;;16.900000;79.243164
77517;BME280;68414;53.946;27.634;2023-07-31T01:48:31;98277.820312;;;16.889999;79.230469
77517;BME280;68414;53.946;27.634;2023-07-31T01:49:31;98276.968750;;;16.950001;79.658203
77517;BME280;68414;53.946;27.634;2023-07-31T01:50:31;98274.515625;;;17.040001;79.477539
77517;BME280;68414;53.946;27.634;2023-07-31T01:51:31;98277.968750;;;17.150000;78.750000
77517;BME280;68414;53.946;27.634;2023-07-31T01:52:31;98283.914062;;;17.170000;78.391602
77517;BME280;68414;53.946;27.634;2023-07-31T01:53:31;98283.476562;;;17.219999;77.996094
77517;BME280;68414;53.946;27.634;2023-07-31T01:54:31;98279.828125;;;17.290001;77.853516
77517;BME280;68414;53.946;27.634;2023-07-31T01:55:31;98279.398438;;;17.340000;77.499023
77517;BME280;68414;53.946;27.634;2023-07-31T01:56:31;98279.398438;;;17.340000;77.049805
77517;BME280;68414;53.946;27.634;2023-07-31T01:57:31;98279.414062;;;17.299999;76.857422
77517;BME280;68414;53.946;27.634;2023-07-31T01:58:31;98287.375000;;;17.320000;77.452148
77517;BME280;68414;53.946;27.634;2023-07-31T01:59:31;98288.125000;;;17.360001;77.063477
77517;BME280;68414;53.946;27.634;2023-07-31T02:00:31;98281.710938;;;17.389999;77.125000
77517;BME280;68414;53.946;27.634;2023-07-31T02:01:31;98284.218750;;;17.299999;77.372070
77517;BME280;68414;53.946;27.634;2023-07-31T02:02:31;98281.859375;;;17.250000;77.901367
77517;BME280;68414;53.946;27.634;2023-07-31T02:03:31;98283.515625;;;17.190001;77.868164
77517;BME280;68414;53.946;27.634;2023-07-31T02:04:31;98287.492188;;;17.180000;77.625977
77517;BME280;68414;53.946;27.634;2023-07-31T02:05:33;98290.328125;;;17.110001;78.228516
77517;BME280;68414;53.946;27.634;2023-07-31T02:06:31;98289.187500;;;17.080000;78.343750
77517;BME280;68414;53.946;27.634;2023-07-31T02:07:31;98287.726562;;;16.930000;78.602539
77517;BME280;68414;53.946;27.634;2023-07-31T02:08:31;98287.687500;;;16.969999;78.883789
77517;BME280;68414;53.946;27.634;2023-07-31T02:09:31;98286.125000;;;16.920000;78.831055
77517;BME280;68414;53.946;27.634;2023-07-31T02:10:31;98288.828125;;;17.030001;79.046875
77517;BME280;68414;53.946;27.634;2023-07-31T02:11:31;98286.734375;;;17.139999;78.474609
77517;BME280;68414;53.946;27.634;2023-07-31T02:12:31;98289.046875;;;17.219999;77.885742
77517;BME280;68414;53.946;27.634;2023-07-31T02:13:31;98286.578125;;;17.309999;77.419922
77517;BME280;68414;53.946;27.634;2023-07-31T02:14:31;98289.687500;;;17.370001;76.957031
77517;BME280;68414;53.946;27.634;2023-07-31T02:15:31;98283.359375;;;17.360001;76.779297
77517;BME280;68414;53.946;27.634;2023-07-31T02:16:31;98291.281250;;;17.379999;76.429688
77517;BME280;68414;53.946;27.634;2023-07-31T02:17:31;98294.554688;;;17.290001;76.768555
77517;BME280;68414;53.946;27.634;2023-07-31T02:18:31;98291.078125;;;17.180000;77.012695
77517;BME280;68414;53.946;27.634;2023-07-31T02:19:31;98288.390625;;;17.080000;77.552734
77517;BME280;68414;53.946;27.634;2023-07-31T02:20:33;98299.625000;;;16.940001;77.966797
77517;BME280;68414;53.946;27.634;2023-07-31T02:21:31;98296.921875;;;16.870001;78.107422
77517;BME280;68414;53.946;27.634;2023-07-31T02:22:31;98300.132812;;;16.820000;78.702148
77517;BME280;68414;53.946;27.634;2023-07-31T02:23:31;98298.148438;;;16.820000;78.769531
77517;BME280;68414;53.946;27.634;2023-07-31T02:24:31;98298.945312;;;16.830000;78.648438
77517;BME280;68414;53.946;27.634;2023-07-31T02:25:31;98298.109375;;;16.860001;79.005859
77517;BME280;68414;53.946;27.634;2023-07-31T02:26:31;98298.062500;;;16.930000;78.283203
77517;BME280;68414;53.946;27.634;2023-07-31T02:27:31;98295.656250;;;16.950001;78.342773
77517;BME280;68414;53.946;27.634;2023-07-31T02:28:31;98296.468750;;;16.920000;78.161133
77517;BME280;68414;53.946;27.634;2023-07-31T02:29:31;98289.000000;;;16.820000;78.668945
77517;BME280;68414;53.946;27.634;2023-07-31T02:30:31;98293.429688;;;16.719999;79.430664
77517;BME280;68414;53.946;27.634;2023-07-31T02:31:31;98293.890625;;;16.670000;79.641602
77517;BME280;68414;53.946;27.634;2023-07-31T02:32:31;98289.921875;;;16.639999;79.592773
77517;BME280;68414;53.946;27.634;2023-07-31T02:33:31;98289.125000;;;16.639999;79.601562
77517;BME280;68414;53.946;27.634;2023-07-31T02:34:31;98301.390625;;;16.740000;80.134766
77517;BME280;68414;53.946;27.634;2023-07-31T02:35:31;98297.007812;;;16.760000;79.800781
77517;BME280;68414;53.946;27.634;2023-07-31T02:36:31;98298.992188;;;16.760000;79.371094
77517;BME280;68414;53.946;27.634;2023-07-31T02:37:31;98301.398438;;;16.700001;79.886719
77517;BME280;68414;53.946;27.634;2023-07-31T02:38:31;98305.312500;;;16.799999;79.367188
77517;BME280;68414;53.946;27.634;2023-07-31T02:39:31;98299.750000;;;16.799999;79.717773
77517;BME280;68414;53.946;27.634;2023-07-31T02:40:31;98304.437500;;;16.900000;79.341797
77517;BME280;68414;53.946;27.634;2023-07-31T02:41:31;98310.328125;;;16.990000;78.963867
77517;BME280;68414;53.946;27.634;2023-07-31T02:42:31;98307.117188;;;17.040001;78.719727
77517;BME280;68414;53.946;27.634;2023-07-31T02:43:31;98303.625000;;;16.930000;78.535156
77517;BME280;68414;53.946;27.634;2023-07-31T02:44:31;98315.562500;;;16.900000;78.771484
77517;BME280;68414;53.946;27.634;2023-07-31T02:45:31;98304.093750;;;16.809999;79.061523
77517;BME280;68414;53.946;27.634;2023-07-31T02:46:31;98310.921875;;;16.760000;79.570312
77517;BME280;68414;53.946;27.634;2023-07-31T02:47:31;98309.320312;;;16.750000;79.731445
77517;BME280;68414;53.946;27.634;2023-07-31T02:48:31;98315.687500;;;16.760000;79.492188
77517;BME280;68414;53.946;27.634;2023-07-31T02:49:31;98312.781250;;;16.900000;79.725586
77517;BME280;68414;53.946;27.634;2023-07-31T02:50:31;98313.109375;;;16.990000;78.590820
77517;BME280;68414;53.946;27.634;2023-07-31T02:51:31;98308.250000;;;17.100000;78.894531
77517;BME280;68414;53.946;27.634;2023-07-31T02:52:31;98307.359375;;;17.200001;78.626953
77517;BME280;68414;53.946;27.634;2023-07-31T02:53:31;98302.546875;;;17.240000;77.734375
77517;BME280;68414;53.946;27.634;2023-07-31T02:54:31;98309.671875;;;17.280001;77.544922
77517;BME280;68414;53.946;27.634;2023-07-31T02:55:31;98313.296875;;;17.250000;77.936523
77517;BME280;68414;53.946;27.634;2023-07-31T02:56:31;98309.750000;;;17.209999;78.004883
77517;BME280;68414;53.946;27.634;2023-07-31T02:57:31;98314.953125;;;17.160000;78.389648
77517;BME280;68414;53.946;27.634;2023-07-31T02:58:33;98314.578125;;;17.139999;78.617188
77517;BME280;68414;53.946;27.634;2023-07-31T02:59:31;98313.781250;;;17.129999;78.856445
77517;BME280;68414;53.946;27.634;2023-07-31T03:00:31;98313.015625;;;17.129999;79.153320
77517;BME280;68414;53.946;27.634;2023-07-31T03:01:31;98312.500000;;;17.250000;79.042969
77517;BME280;68414;53.946;27.634;2023-07-31T03:02:31;98304.937500;;;17.250000;78.770508
77517;BME280;68414;53.946;27.634;2023-07-31T03:03:31;98313.187500;;;17.360001;78.446289
77517;BME280;68414;53.946;27.634;2023-07-31T03:04:31;98315.132812;;;17.389999;78.541016
77517;BME280;68414;53.946;27.634;2023-07-31T03:05:31;98310.671875;;;17.490000;78.162109
77517;BME280;68414;53.946;27.634;2023-07-31T03:06:31;98315.039062;;;17.530001;77.786133
77517;BME280;68414;53.946;27.634;2023-07-31T03:07:31;98311.828125;;;17.549999;78.171875
77517;BME280;68414;53.946;27.634;2023-07-31T03:08:31;98310.218750;;;17.570000;77.979492
77517;BME280;68414;53.946;27.634;2023-07-31T03:09:31;98309.351562;;;17.639999;77.924805
77517;BME280;68414;53.946;27.634;2023-07-31T03:10:31;98305.750000;;;17.670000;77.600586
77517;BME280;68414;53.946;27.634;2023-07-31T03:11:31;98310.101562;;;17.680000;77.318359
77517;BME280;68414;53.946;27.634;2023-07-31T03:12:31;98314.859375;;;17.709999;77.499023
77517;BME280;68414;53.946;27.634;2023-07-31T03:13:31;98311.062500;;;17.540001;77.919922
77517;BME280;68414;53.946;27.634;2023-07-31T03:14:31;98311.437500;;;17.559999;78.869141
77517;BME280;68414;53.946;27.634;2023-07-31T03:15:31;98314.125000;;;17.629999;78.133789
77517;BME280;68414;53.946;27.634;2023-07-31T03:16:31;98304.648438;;;17.570000;78.462891
77517;BME280;68414;53.946;27.634;2023-07-31T03:17:31;98311.812500;;;17.580000;78.092773
77517;BME280;68414;53.946;27.634;2023-07-31T03:18:31;98314.921875;;;17.639999;78.012695
77517;BME280;68414;53.946;27.634;2023-07-31T03:19:31;98314.500000;;;17.650000;77.752930
77517;BME280;68414;53.946;27.634;2023-07-31T03:20:31;98313.375000;;;17.590000;78.367188
77517;BME280;68414;53.946;27.634;2023-07-31T03:21:31;98315.742188;;;17.610001;78.018555
77517;BME280;68414;53.946;27.634;2023-07-31T03:22:31;98313.375000;;;17.590000;78.256836
77517;BME280;68414;53.946;27.634;2023-07-31T03:23:31;98317.781250;;;17.570000;78.725586
77517;BME280;68414;53.946;27.634;2023-07-31T03:24:31;98313.843750;;;17.540001;78.611328
77517;BME280;68414;53.946;27.634;2023-07-31T03:25:31;98318.578125;;;17.570000;78.670898
77517;BME280;68414;53.946;27.634;2023-07-31T03:26:31;98311.390625;;;17.600000;78.884766
77517;BME280;68414;53.946;27.634;2023-07-31T03:27:31;98315.656250;;;17.709999;78.608398
77517;BME280;68414;53.946;27.634;2023-07-31T03:28:31;98318.687500;;;17.840000;78.367188
77517;BME280;68414;53.946;27.634;2023-07-31T03:29:31;98312.171875;;;17.969999;77.688477
77517;BME280;68414;53.946;27.634;2023-07-31T03:30:31;98315.593750;;;18.080000;76.992188
77517;BME280;68414;53.946;27.634;2023-07-31T03:31:31;98311.109375;;;18.180000;76.721680
77517;BME280;68414;53.946;27.634;2023-07-31T03:32:31;98318.164062;;;18.260000;76.517578
77517;BME280;68414;53.946;27.634;2023-07-31T03:33:31;98310.906250;;;18.320000;76.109375
77517;BME280;68414;53.946;27.634;2023-07-31T03:34:31;98315.593750;;;18.389999;75.810547
77517;BME280;68414;53.946;27.634;2023-07-31T03:35:31;98317.929688;;;18.440001;75.599609
77517;BME280;68414;53.946;27.634;2023-07-31T03:36:31;98319.250000;;;18.360001;75.708008
77517;BME280;68414;53.946;27.634;2023-07-31T03:37:31;98315.343750;;;18.299999;76.236328
77517;BME280;68414;53.946;27.634;2023-07-31T03:38:31;98319.328125;;;18.290001;76.499023
77517;BME280;68414;53.946;27.634;2023-07-31T03:39:31;98317.343750;;;18.290001;76.499023
77517;BME280;68414;53.946;27.634;2023-07-31T03:40:31;98316.453125;;;18.360001;76.346680
77517;BME280;68414;53.946;27.634;2023-07-31T03:41:31;98318.781250;;;18.410000;76.057617
77517;BME280;68414;53.946;27.634;2023-07-31T03:42:31;98314.765625;;;18.420000;76.059570
77517;BME280;68414;53.946;27.634;2023-07-31T03:43:31;98313.179688;;;18.440001;76.284180
77517;BME280;68414;53.946;27.634;2023-07-31T03:44:31;98316.335938;;;18.459999;76.133789
77517;BME280;68414;53.946;27.634;2023-07-31T03:45:31;98316.640625;;;18.520000;76.010742
77517;BME280;68414;53.946;27.634;2023-07-31T03:46:31;98321.765625;;;18.570000;75.886719
77517;BME280;68414;53.946;27.634;2023-07-31T03:47:31;98320.937500;;;18.600000;75.648438
77517;BME280;68414;53.946;27.634;2023-07-31T03:48:31;98317.656250;;;18.650000;75.581055
77517;BME280;68414;53.946;27.634;2023-07-31T03:49:31;98317.984375;;;18.700001;75.127930
77517;BME280;68414;53.946;27.634;2023-07-31T03:50:31;98311.546875;;;18.730000;75.364258
77517;BME280;68414;53.946;27.634;2023-07-31T03:51:31;98317.921875;;;18.740000;75.209961
77517;BME280;68414;53.946;27.634;2023-07-31T03:52:31;98311.609375;;;18.700001;75.523438
77517;BME280;68414;53.946;27.634;2023-07-31T03:53:31;98319.710938;;;18.610001;75.717773
77517;BME280;68414;53.946;27.634;2023-07-31T03:54:31;98322.593750;;;18.540001;76.376953
77517;BME280;68414;53.946;27.634;2023-07-31T03:55:31;98324.281250;;;18.480000;76.619141
77517;BME280;68414;53.946;27.634;2023-07-31T03:56:31;98325.906250;;;18.450001;76.835938
77517;BME280;68414;53.946;27.634;2023-07-31T03:57:33;98325.500000;;;18.430000;77.238281
77517;BME280;68414;53.946;27.634;2023-07-31T03:58:31;98323.875000;;;18.490000;76.897461
77517;BME280;68414;53.946;27.634;2023-07-31T03:59:31;98324.250000;;;18.510000;76.834961
77517;BME280;68414;53.946;27.634;2023-07-31T04:00:31;98313.976562;;;18.450001;77.452148
77517;BME280;68414;53.946;27.634;2023-07-31T04:01:31;98324.367188;;;18.410000;77.708984
77517;BME280;68414;53.946;27.634;2023-07-31T04:02:31;98324.820312;;;18.360001;77.953125
77517;BME280;68414;53.946;27.634;2023-07-31T04:03:31;98328.406250;;;18.360001;77.920898
77517;BME280;68414;53.946;27.634;2023-07-31T04:04:31;98322.828125;;;18.360001;78.140625
77517;BME280;68414;53.946;27.634;2023-07-31T04:05:31;98319.984375;;;18.400000;78.014648
77517;BME280;68414;53.946;27.634;2023-07-31T04:06:31;98323.570312;;;18.400000;78.083008
77517;BME280;68414;53.946;27.634;2023-07-31T04:07:31;98321.976562;;;18.389999;78.045898
77517;BME280;68414;53.946;27.634;2023-07-31T04:08:31;98328.351562;;;18.400000;77.596680
77517;BME280;68414;53.946;27.634;2023-07-31T04:09:31;98331.078125;;;18.430000;77.260742
77517;BME280;68414;53.946;27.634;2023-07-31T04:10:31;98323.109375;;;18.450001;77.408203
77517;BME280;68414;53.946;27.634;2023-07-31T04:11:31;98326.296875;;;18.469999;77.400391
77517;BME280;68414;53.946;27.634;2023-07-31T04:12:31;98321.453125;;;18.510000;77.649414
77517;BME280;68414;53.946;27.634;2023-07-31T04:13:32;98318.546875;;;18.580000;77.673828
77517;BME280;68414;53.946;27.634;2023-07-31T04:14:31;98320.812500;;;18.670000;77.820312
77517;BME280;68414;53.946;27.634;2023-07-31T04:15:31;98319.882812;;;18.770000;77.750000
77517;BME280;68414;53.946;27.634;2023-07-31T04:16:31;98320.015625;;;18.930000;77.039062
77517;BME280;68414;53.946;27.634;2023-07-31T04:17:31;98309.796875;;;19.100000;76.307617
77517;BME280;68414;53.946;27.634;2023-07-31T04:18:31;98319.375000;;;19.090000;75.907227
77517;BME280;68414;53.946;27.634;2023-07-31T04:19:31;98323.687500;;;19.129999;76.368164
77517;BME280;68414;53.946;27.634;2023-07-31T04:20:31;98321.218750;;;19.190001;75.695312
77517;BME280;68414;53.946;27.634;2023-07-31T04:21:31;98320.421875;;;19.180000;76.630859
77517;BME280;68414;53.946;27.634;2023-07-31T04:22:31;98321.437500;;;19.280001;76.227539
77517;BME280;68414;53.946;27.634;2023-07-31T04:23:31;98316.492188;;;19.389999;75.628906
77517;BME280;68414;53.946;27.634;2023-07-31T04:24:31;98323.531250;;;19.469999;75.212891
77517;BME280;68414;53.946;27.634;2023-07-31T04:25:32;98316.976562;;;19.570000;75.053711
77517;BME280;68414;53.946;27.634;2023-07-31T04:26:31;98316.781250;;;19.680000;74.838867
77517;BME280;68414;53.946;27.634;2023-07-31T04:27:31;98312.625000;;;19.760000;74.178711
77517;BME280;68414;53.946;27.634;2023-07-31T04:28:31;98315.640625;;;19.850000;74.458008
77517;BME280;68414;53.946;27.634;2023-07-31T04:29:31;98318.750000;;;19.900000;74.191406
77517;BME280;68414;53.946;27.634;2023-07-31T04:30:31;98321.828125;;;19.959999;74.023438
77517;BME280;68414;53.946;27.634;2023-07-31T04:31:31;98325.984375;;;19.879999;74.342773
77517;BME280;68414;53.946;27.634;2023-07-31T04:32:31;98329.703125;;;19.809999;74.893555
77517;BME280;68414;53.946;27.634;2023-07-31T04:33:31;98336.578125;;;19.770000;75.041016
77517;BME280;68414;53.946;27.634;2023-07-31T04:34:31;98329.140625;;;19.900000;74.754883
77517;BME280;68414;53.946;27.634;2023-07-31T04:35:31;98329.421875;;;19.950001;74.353516
77517;BME280;68414;53.946;27.634;2023-07-31T04:36:31;98331.859375;;;19.930000;74.549805
77517;BME280;68414;53.946;27.634;2023-07-31T04:37:31;98331.718750;;;20.000000;74.396484
77517;BME280;68414;53.946;27.634;2023-07-31T04:38:31;98330.570312;;;19.980000;74.501953
77517;BME280;68414;53.946;27.634;2023-07-31T04:39:31;98321.109375;;;19.920000;75.233398
77517;BME280;68414;53.946;27.634;2023-07-31T04:40:31;98326.921875;;;20.010000;75.016602
77517;BME280;68414;53.946;27.634;2023-07-31T04:41:31;98319.875000;;;20.120001;74.482422